Time,TemperatureF,DewpointF,PressureIn,WindDirection,WindDirectionDegrees,WindSpeedMPH,WindSpeedGustMPH,Humidity,HourlyPrecipIn,Conditions,Clouds,dailyrainin,SoftwareType,DateUTC
2013-10-18 00:01:00,24.8,13.6,31.66,NW,315,0.0,3.0,62,0.00,,,0.00,meteohub,2013-10-18 06:01:00,
2013-10-18 00:06:00,24.8,13.6,31.65,NW,315,0.0,2.0,62,0.00,,,0.00,meteohub,2013-10-18 06:06:00,
2013-10-18 00:11:00,24.4,14.0,31.66,NW,315,0.0,2.0,64,0.00,,,0.00,meteohub,2013-10-18 06:11:00,
2013-10-18 00:16:00,24.6,14.2,31.65,NE,45,1.0,2.0,64,0.00,,,0.00,meteohub,2013-10-18 06:16:00,
2013-10-18 00:22:00,24.4,14.0,31.65,SW,225,2.0,2.0,64,0.00,,,0.00,meteohub,2013-10-18 06:22:00,
2013-10-18 00:27:00,24.4,14.0,31.65,West,270,0.0,2.0,64,0.00,,,0.00,meteohub,2013-10-18 06:27:00,
2013-10-18 00:32:00,24.4,14.0,31.65,NE,45,0.0,2.0,64,0.00,,,0.00,meteohub,2013-10-18 06:32:00,
2013-10-18 00:37:00,24.3,13.8,31.65,NE,45,2.0,2.0,64,0.00,,,0.00,meteohub,2013-10-18 06:37:00,
2013-10-18 00:42:00,24.6,14.2,31.66,NE,45,0.0,3.0,64,0.00,,,0.00,meteohub,2013-10-18 06:42:00,
2013-10-18 00:47:00,24.6,14.2,31.65,East,90,1.0,3.0,64,0.00,,,0.00,meteohub,2013-10-18 06:47:00,
2013-10-18 00:52:00,24.8,14.4,31.66,West,270,1.0,3.0,64,0.00,,,0.00,meteohub,2013-10-18 06:52:00,
2013-10-18 00:57:00,24.8,14.4,31.65,NW,315,1.0,2.0,64,0.00,,,0.00,meteohub,2013-10-18 06:57:00,
2013-10-18 01:02:00,24.6,14.5,31.65,South,180,0.0,2.0,65,0.00,,,0.00,meteohub,2013-10-18 07:02:00,
2013-10-18 01:07:00,24.6,14.9,31.65,WSW,248,2.0,2.0,66,0.00,,,0.00,meteohub,2013-10-18 07:07:00,
2013-10-18 01:12:00,24.6,14.9,31.64,West,270,0.0,2.0,66,0.00,,,0.00,meteohub,2013-10-18 07:12:00,
2013-10-18 01:17:00,24.6,15.3,31.65,SW,225,1.0,2.0,67,0.00,,,0.00,meteohub,2013-10-18 07:17:00,
2013-10-18 01:22:00,24.6,15.3,31.65,SW,225,0.0,2.0,67,0.00,,,0.00,meteohub,2013-10-18 07:22:00,
2013-10-18 01:27:00,24.8,15.4,31.65,West,270,2.0,2.0,67,0.00,,,0.00,meteohub,2013-10-18 07:27:00,
2013-10-18 01:32:00,24.8,15.8,31.65,West,270,2.0,2.0,68,0.00,,,0.00,meteohub,2013-10-18 07:32:00,
2013-10-18 01:37:00,25.3,16.5,31.65,West,270,2.0,3.0,69,0.00,,,0.00,meteohub,2013-10-18 07:37:00,
2013-10-18 01:42:00,25.7,16.9,31.65,West,270,3.0,3.0,69,0.00,,,0.00,meteohub,2013-10-18 07:42:00,
2013-10-18 01:47:00,25.9,17.4,31.65,NW,315,2.0,4.0,70,0.00,,,0.00,meteohub,2013-10-18 07:47:00,
2013-10-18 01:52:00,26.1,18.3,31.65,NW,315,2.0,5.0,72,0.00,,,0.00,meteohub,2013-10-18 07:52:00,
2013-10-18 01:57:00,25.9,18.1,31.65,NW,315,2.0,5.0,72,0.00,,,0.00,meteohub,2013-10-18 07:57:00,
2013-10-18 02:02:00,25.9,18.5,31.65,North,0,1.0,5.0,73,0.00,,,0.00,meteohub,2013-10-18 08:02:00,
2013-10-18 02:07:00,25.5,18.1,31.65,SE,135,2.0,4.0,73,0.00,,,0.00,meteohub,2013-10-18 08:07:00,
2013-10-18 02:12:00,25.3,18.0,31.65,SE,135,0.0,2.0,73,0.00,,,0.00,meteohub,2013-10-18 08:12:00,
2013-10-18 02:17:00,25.3,18.1,31.65,West,270,2.0,2.0,74,0.00,,,0.00,meteohub,2013-10-18 08:17:00,
2013-10-18 02:23:00,25.3,18.5,31.65,West,270,3.0,3.0,75,0.00,,,0.00,meteohub,2013-10-18 08:23:00,
2013-10-18 02:28:00,25.3,18.9,31.65,SW,225,2.0,3.0,76,0.00,,,0.00,meteohub,2013-10-18 08:28:00,
2013-10-18 02:33:00,25.5,19.4,31.64,North,0,1.0,3.0,77,0.00,,,0.00,meteohub,2013-10-18 08:33:00,
2013-10-18 02:38:00,25.5,19.4,31.65,NW,315,2.0,3.0,77,0.00,,,0.00,meteohub,2013-10-18 08:38:00,
2013-10-18 02:43:00,25.3,19.4,31.65,West,270,3.0,3.0,78,0.00,,,0.00,meteohub,2013-10-18 08:43:00,
2013-10-18 02:48:00,25.3,19.8,31.65,NW,315,2.0,3.0,79,0.00,,,0.00,meteohub,2013-10-18 08:48:00,
2013-10-18 02:54:00,25.2,19.9,31.65,NW,315,0.0,3.0,80,0.00,,,0.00,meteohub,2013-10-18 08:54:00,
2013-10-18 02:59:00,25.2,19.9,31.65,SW,225,2.0,3.0,80,0.00,,,0.00,meteohub,2013-10-18 08:59:00,
2013-10-18 03:04:00,25.0,19.8,31.65,SW,225,2.0,2.0,80,0.00,,,0.00,meteohub,2013-10-18 09:04:00,
2013-10-18 03:09:00,25.0,19.9,31.65,NE,45,2.0,2.0,81,0.00,,,0.00,meteohub,2013-10-18 09:09:00,
2013-10-18 03:14:00,25.0,20.3,31.64,SW,225,2.0,2.0,82,0.00,,,0.00,meteohub,2013-10-18 09:14:00,
2013-10-18 03:20:00,25.0,20.3,31.64,NW,315,1.0,2.0,82,0.00,,,0.00,meteohub,2013-10-18 09:20:00,
2013-10-18 03:25:00,25.2,20.5,31.64,North,0,0.0,2.0,82,0.00,,,0.00,meteohub,2013-10-18 09:25:00,
2013-10-18 03:30:00,25.2,20.5,31.64,South,180,0.0,2.0,82,0.00,,,0.00,meteohub,2013-10-18 09:30:00,
2013-10-18 03:35:00,25.2,20.5,31.64,SW,225,1.0,1.0,82,0.00,,,0.00,meteohub,2013-10-18 09:35:00,
2013-10-18 03:40:00,25.2,20.5,31.65,NW,315,3.0,3.0,82,0.00,,,0.00,meteohub,2013-10-18 09:40:00,
2013-10-18 03:45:00,25.2,20.5,31.65,NW,315,2.0,3.0,82,0.00,,,0.00,meteohub,2013-10-18 09:45:00,
2013-10-18 03:51:00,25.3,20.7,31.64,NW,315,2.0,3.0,82,0.00,,,0.00,meteohub,2013-10-18 09:51:00,
2013-10-18 03:56:00,25.3,20.7,31.64,NW,315,2.0,4.0,82,0.00,,,0.00,meteohub,2013-10-18 09:56:00,
2013-10-18 04:01:00,25.3,20.7,31.64,West,270,3.0,4.0,82,0.00,,,0.00,meteohub,2013-10-18 10:01:00,
2013-10-18 04:06:00,25.3,20.7,31.65,West,270,3.0,4.0,82,0.00,,,0.00,meteohub,2013-10-18 10:06:00,
2013-10-18 04:11:00,25.3,20.8,31.65,West,270,2.0,4.0,83,0.00,,,0.00,meteohub,2013-10-18 10:11:00,
2013-10-18 04:16:00,25.3,20.8,31.64,NW,315,2.0,5.0,83,0.00,,,0.00,meteohub,2013-10-18 10:16:00,
2013-10-18 04:22:00,25.2,21.0,31.65,NW,315,2.0,5.0,84,0.00,,,0.00,meteohub,2013-10-18 10:22:00,
2013-10-18 04:27:00,25.2,21.0,31.65,NW,315,2.0,5.0,84,0.00,,,0.00,meteohub,2013-10-18 10:27:00,
2013-10-18 04:32:00,25.2,21.0,31.65,NW,315,2.0,4.0,84,0.00,,,0.00,meteohub,2013-10-18 10:32:00,
2013-10-18 04:37:00,25.0,20.8,31.65,NW,315,3.0,7.0,84,0.00,,,0.00,meteohub,2013-10-18 10:37:00,
2013-10-18 04:42:00,24.8,20.7,31.65,East,90,4.0,7.0,84,0.00,,,0.00,meteohub,2013-10-18 10:42:00,
2013-10-18 04:47:00,24.6,21.0,31.65,North,0,2.0,7.0,86,0.00,,,0.00,meteohub,2013-10-18 10:47:00,
2013-10-18 04:52:00,24.4,20.8,31.65,East,90,2.0,4.0,86,0.00,,,0.00,meteohub,2013-10-18 10:52:00,
2013-10-18 04:57:00,24.3,20.7,31.65,North,0,4.0,4.0,86,0.00,,,0.00,meteohub,2013-10-18 10:57:00,
2013-10-18 05:02:00,23.9,20.1,31.65,SE,135,1.0,4.0,85,0.00,,,0.00,meteohub,2013-10-18 11:02:00,
2013-10-18 05:07:00,23.7,19.9,31.65,NW,315,2.0,4.0,85,0.00,,,0.00,meteohub,2013-10-18 11:07:00,
2013-10-18 05:12:00,23.5,19.8,31.65,NW,315,3.0,4.0,85,0.00,,,0.00,meteohub,2013-10-18 11:12:00,
2013-10-18 05:17:00,23.7,19.9,31.65,NE,45,2.0,7.0,85,0.00,,,0.00,meteohub,2013-10-18 11:17:00,
2013-10-18 05:22:00,23.7,19.9,31.65,NW,315,2.0,7.0,85,0.00,,,0.00,meteohub,2013-10-18 11:22:00,
2013-10-18 05:27:00,23.7,19.9,31.65,NW,315,2.0,7.0,85,0.00,,,0.00,meteohub,2013-10-18 11:27:00,
2013-10-18 05:32:00,23.7,19.9,31.65,NE,45,3.0,4.0,85,0.00,,,0.00,meteohub,2013-10-18 11:32:00,
2013-10-18 05:37:00,23.7,19.9,31.65,North,0,4.0,6.0,85,0.00,,,0.00,meteohub,2013-10-18 11:37:00,
2013-10-18 05:42:00,23.5,19.8,31.65,North,0,6.0,6.0,85,0.00,,,0.00,meteohub,2013-10-18 11:42:00,
2013-10-18 05:47:00,23.5,19.4,31.66,ESE,113,4.0,6.0,84,0.00,,,0.00,meteohub,2013-10-18 11:47:00,
2013-10-18 05:52:00,23.4,19.2,31.66,SW,225,2.0,6.0,84,0.00,,,0.00,meteohub,2013-10-18 11:52:00,
2013-10-18 05:57:00,23.2,18.9,31.66,NW,315,2.0,6.0,83,0.00,,,0.00,meteohub,2013-10-18 11:57:00,
2013-10-18 06:02:00,23.2,18.9,31.66,East,90,4.0,5.0,83,0.00,,,0.00,meteohub,2013-10-18 12:02:00,
2013-10-18 06:07:00,23.2,18.9,31.66,East,90,4.0,5.0,83,0.00,,,0.00,meteohub,2013-10-18 12:07:00,
2013-10-18 06:12:00,22.5,17.2,31.66,SE,135,2.0,4.0,80,0.00,,,0.00,meteohub,2013-10-18 12:12:00,
2013-10-18 06:17:00,22.3,16.7,31.66,North,0,3.0,4.0,79,0.00,,,0.00,meteohub,2013-10-18 12:17:00,
2013-10-18 06:22:00,22.1,16.3,31.66,North,0,1.0,6.0,78,0.00,,,0.00,meteohub,2013-10-18 12:22:00,
2013-10-18 06:27:00,21.7,16.0,31.66,NW,315,2.0,6.0,78,0.00,,,0.00,meteohub,2013-10-18 12:27:00,
2013-10-18 06:32:00,21.6,15.8,31.66,SW,225,2.0,6.0,78,0.00,,,0.00,meteohub,2013-10-18 12:32:00,
2013-10-18 06:37:00,21.6,15.8,31.67,North,0,4.0,4.0,78,0.00,,,0.00,meteohub,2013-10-18 12:37:00,
2013-10-18 06:42:00,21.9,15.8,31.67,NW,315,2.0,7.0,77,0.00,,,0.00,meteohub,2013-10-18 12:42:00,
2013-10-18 06:47:00,21.9,15.4,31.67,North,0,4.0,7.0,76,0.00,,,0.00,meteohub,2013-10-18 12:47:00,
2013-10-18 06:52:00,21.9,15.4,31.68,West,270,4.0,7.0,76,0.00,,,0.00,meteohub,2013-10-18 12:52:00,
2013-10-18 06:57:00,21.9,15.4,31.68,West,270,3.0,8.0,76,0.00,,,0.00,meteohub,2013-10-18 12:57:00,
2013-10-18 07:02:00,21.7,15.6,31.68,NW,315,3.0,8.0,77,0.00,,,0.00,meteohub,2013-10-18 13:02:00,
2013-10-18 07:07:00,21.6,15.4,31.68,NE,45,2.0,8.0,77,0.00,,,0.00,meteohub,2013-10-18 13:07:00,
2013-10-18 07:12:00,21.6,15.4,31.68,West,270,2.0,7.0,77,0.00,,,0.00,meteohub,2013-10-18 13:12:00,
2013-10-18 07:17:00,21.4,15.6,31.68,NW,315,2.0,4.0,78,0.00,,,0.00,meteohub,2013-10-18 13:17:00,
2013-10-18 07:22:00,21.4,15.8,31.68,South,180,3.0,4.0,79,0.00,,,0.00,meteohub,2013-10-18 13:22:00,
2013-10-18 07:27:00,21.2,15.8,31.69,NW,315,2.0,4.0,79,0.00,,,0.00,meteohub,2013-10-18 13:27:00,
2013-10-18 07:32:00,21.2,16.0,31.69,North,0,1.0,4.0,80,0.00,,,0.00,meteohub,2013-10-18 13:32:00,
2013-10-18 07:37:00,20.8,15.6,31.69,NNW,338,2.0,4.0,80,0.00,,,0.00,meteohub,2013-10-18 13:37:00,
2013-10-18 07:42:00,20.7,15.4,31.70,SW,225,0.0,4.0,80,0.00,,,0.00,meteohub,2013-10-18 13:42:00,
2013-10-18 07:47:00,20.3,15.1,31.70,East,90,0.0,2.0,80,0.00,,,0.00,meteohub,2013-10-18 13:47:00,
2013-10-18 07:52:00,20.3,14.9,31.70,NE,45,1.0,2.0,79,0.00,,,0.00,meteohub,2013-10-18 13:52:00,
2013-10-18 07:57:00,20.1,14.7,31.70,NW,315,1.0,2.0,79,0.00,,,0.00,meteohub,2013-10-18 13:57:00,
2013-10-18 08:02:00,20.3,15.1,31.70,West,270,2.0,2.0,80,0.00,,,0.00,meteohub,2013-10-18 14:02:00,
2013-10-18 08:07:00,20.3,15.1,31.70,West,270,2.0,2.0,80,0.00,,,0.00,meteohub,2013-10-18 14:07:00,
2013-10-18 08:12:00,20.7,15.8,31.70,NE,45,2.0,2.0,81,0.00,,,0.00,meteohub,2013-10-18 14:12:00,
2013-10-18 08:17:00,20.8,16.0,31.71,North,0,2.0,4.0,81,0.00,,,0.00,meteohub,2013-10-18 14:17:00,
2013-10-18 08:22:00,20.8,16.2,31.71,North,0,3.0,4.0,82,0.00,,,0.00,meteohub,2013-10-18 14:22:00,
2013-10-18 08:27:00,20.8,16.2,31.71,NNE,23,4.0,4.0,82,0.00,,,0.00,meteohub,2013-10-18 14:27:00,
2013-10-18 08:32:00,21.0,16.7,31.71,South,180,2.0,4.0,83,0.00,,,0.00,meteohub,2013-10-18 14:32:00,
2013-10-18 08:37:00,21.2,16.5,31.72,West,270,2.0,4.0,82,0.00,,,0.00,meteohub,2013-10-18 14:37:00,
2013-10-18 08:42:00,21.4,17.1,31.71,West,270,2.0,4.0,83,0.00,,,0.00,meteohub,2013-10-18 14:42:00,
2013-10-18 08:47:00,21.6,17.2,31.72,West,270,2.0,4.0,83,0.00,,,0.00,meteohub,2013-10-18 14:47:00,
2013-10-18 08:52:00,22.1,17.4,31.72,North,0,2.0,3.0,82,0.00,,,0.00,meteohub,2013-10-18 14:52:00,
2013-10-18 08:57:00,23.4,18.3,31.73,North,0,2.0,4.0,81,0.00,,,0.00,meteohub,2013-10-18 14:57:00,
2013-10-18 09:02:00,24.6,19.4,31.73,NE,45,2.0,4.0,80,0.00,,,0.00,meteohub,2013-10-18 15:02:00,
2013-10-18 09:07:00,25.9,19.4,31.73,NE,45,6.0,6.0,76,0.00,,,0.00,meteohub,2013-10-18 15:07:00,
2013-10-18 09:12:00,27.1,19.4,31.73,East,90,4.0,6.0,72,0.00,,,0.00,meteohub,2013-10-18 15:12:00,
2013-10-18 09:17:00,28.4,20.5,31.73,East,90,5.0,7.0,72,0.00,,,0.00,meteohub,2013-10-18 15:17:00,
2013-10-18 09:22:00,29.5,19.6,31.73,NE,45,4.0,7.0,66,0.00,,,0.00,meteohub,2013-10-18 15:22:00,
2013-10-18 09:27:00,28.4,17.4,31.73,NW,315,4.0,8.0,63,0.00,,,0.00,meteohub,2013-10-18 15:27:00,
2013-10-18 09:32:00,27.9,15.8,31.73,NE,45,4.0,8.0,60,0.00,,,0.00,meteohub,2013-10-18 15:32:00,
2013-10-18 09:37:00,28.2,16.5,31.73,West,270,7.0,8.0,61,0.00,,,0.00,meteohub,2013-10-18 15:37:00,
2013-10-18 09:42:00,28.4,17.8,31.73,East,90,2.0,8.0,64,0.00,,,0.00,meteohub,2013-10-18 15:42:00,
2013-10-18 09:47:00,28.4,17.4,31.73,North,0,4.0,8.0,63,0.00,,,0.00,meteohub,2013-10-18 15:47:00,
2013-10-18 09:52:00,28.0,15.3,31.74,West,270,4.0,7.0,58,0.00,,,0.00,meteohub,2013-10-18 15:52:00,
2013-10-18 09:57:00,27.1,13.5,31.74,NW,315,7.0,7.0,56,0.00,,,0.00,meteohub,2013-10-18 15:57:00,
2013-10-18 10:02:00,26.8,12.7,31.74,North,0,5.0,8.0,55,0.00,,,0.00,meteohub,2013-10-18 16:02:00,
2013-10-18 10:07:00,26.8,12.7,31.74,North,0,5.0,8.0,55,0.00,,,0.00,meteohub,2013-10-18 16:07:00,
2013-10-18 10:12:00,30.2,15.6,31.74,West,270,6.0,8.0,54,0.01,,,0.01,meteohub,2013-10-18 16:12:00,
2013-10-18 10:17:00,31.1,14.5,31.74,West,270,5.0,13.0,50,0.01,,,0.01,meteohub,2013-10-18 16:17:00,
2013-10-18 10:22:00,31.6,15.1,31.74,North,0,7.0,13.0,50,0.01,,,0.01,meteohub,2013-10-18 16:22:00,
2013-10-18 10:27:00,31.8,13.8,31.74,NNW,338,7.0,13.0,47,0.01,,,0.01,meteohub,2013-10-18 16:27:00,
2013-10-18 10:32:00,31.8,13.5,31.74,NW,315,9.0,11.0,46,0.01,,,0.01,meteohub,2013-10-18 16:32:00,
2013-10-18 10:37:00,31.6,12.7,31.74,NW,315,8.0,11.0,45,0.01,,,0.01,meteohub,2013-10-18 16:37:00,
2013-10-18 10:42:00,31.1,12.2,31.74,West,270,7.0,11.0,45,0.01,,,0.01,meteohub,2013-10-18 16:42:00,
2013-10-18 10:47:00,31.3,11.8,31.75,West,270,8.0,13.0,44,0.02,,,0.02,meteohub,2013-10-18 16:47:00,
2013-10-18 10:52:00,30.9,11.5,31.74,West,270,9.0,13.0,44,0.02,,,0.02,meteohub,2013-10-18 16:52:00,
2013-10-18 10:57:00,30.7,11.5,31.74,NW,315,12.0,13.0,44,0.04,,,0.04,meteohub,2013-10-18 16:57:00,
2013-10-18 11:02:00,30.7,11.5,31.75,NW,315,9.0,13.0,44,0.04,,,0.04,meteohub,2013-10-18 17:02:00,
2013-10-18 11:07:00,31.3,12.4,31.74,West,270,8.0,13.0,45,0.04,,,0.04,meteohub,2013-10-18 17:07:00,
2013-10-18 11:12:00,31.5,12.0,31.74,NW,315,8.0,13.0,44,0.02,,,0.04,meteohub,2013-10-18 17:12:00,
2013-10-18 11:17:00,31.8,12.4,31.75,WNW,293,14.0,14.0,44,0.02,,,0.04,meteohub,2013-10-18 17:17:00,
2013-10-18 11:22:00,31.5,9.9,31.75,West,270,5.0,14.0,40,0.02,,,0.04,meteohub,2013-10-18 17:22:00,
2013-10-18 11:27:00,31.6,10.6,31.75,North,0,9.0,14.0,41,0.04,,,0.05,meteohub,2013-10-18 17:27:00,
2013-10-18 11:32:00,31.5,10.4,31.74,NW,315,7.0,14.0,41,0.04,,,0.05,meteohub,2013-10-18 17:32:00,
2013-10-18 11:37:00,30.9,9.5,31.75,NNW,338,8.0,11.0,40,0.04,,,0.05,meteohub,2013-10-18 17:37:00,
2013-10-18 11:43:00,31.5,10.9,31.75,West,270,7.0,12.0,42,0.02,,,0.05,meteohub,2013-10-18 17:43:00,
2013-10-18 11:48:00,31.6,9.5,31.75,NW,315,4.0,12.0,39,0.02,,,0.05,meteohub,2013-10-18 17:48:00,
2013-10-18 11:53:00,32.4,11.3,31.75,North,0,11.0,12.0,41,0.02,,,0.05,meteohub,2013-10-18 17:53:00,
2013-10-18 11:58:00,32.5,9.1,31.75,West,270,8.0,12.0,37,0.01,,,0.05,meteohub,2013-10-18 17:58:00,
2013-10-18 12:03:00,32.5,9.7,31.75,NW,315,9.0,11.0,38,0.01,,,0.05,meteohub,2013-10-18 18:03:00,
2013-10-18 12:08:00,32.9,10.6,31.75,West,270,7.0,11.0,39,0.01,,,0.05,meteohub,2013-10-18 18:08:00,
2013-10-18 12:14:00,31.3,7.3,31.75,NW,315,11.0,11.0,36,0.01,,,0.05,meteohub,2013-10-18 18:14:00,
2013-10-18 12:19:00,30.7,7.0,31.75,NW,315,6.0,15.0,36,0.01,,,0.05,meteohub,2013-10-18 18:19:00,
2013-10-18 12:24:00,31.8,8.4,31.75,SW,225,5.0,15.0,37,0.00,,,0.05,meteohub,2013-10-18 18:24:00,
2013-10-18 12:29:00,32.4,6.4,31.75,West,270,5.0,12.0,33,0.00,,,0.05,meteohub,2013-10-18 18:29:00,
2013-10-18 12:34:00,32.9,5.5,31.75,NW,315,7.0,12.0,31,0.00,,,0.05,meteohub,2013-10-18 18:34:00,
2013-10-18 12:39:00,32.9,4.8,31.74,North,0,14.0,14.0,30,0.00,,,0.05,meteohub,2013-10-18 18:39:00,
2013-10-18 12:45:00,32.9,5.5,31.74,West,270,10.0,14.0,31,0.00,,,0.05,meteohub,2013-10-18 18:45:00,
2013-10-18 12:50:00,33.6,7.5,31.74,NW,315,9.0,15.0,33,0.00,,,0.05,meteohub,2013-10-18 18:50:00,
2013-10-18 12:55:00,33.3,6.6,31.74,ESE,113,8.0,15.0,32,0.00,,,0.05,meteohub,2013-10-18 18:55:00,
2013-10-18 13:00:00,32.7,5.4,31.74,North,0,13.0,15.0,31,0.00,,,0.05,meteohub,2013-10-18 19:00:00,
2013-10-18 13:05:00,32.7,3.9,31.73,NW,315,8.0,15.0,29,0.00,,,0.05,meteohub,2013-10-18 19:05:00,
2013-10-18 13:11:00,33.6,7.5,31.74,SW,225,11.0,15.0,33,0.00,,,0.05,meteohub,2013-10-18 19:11:00,
2013-10-18 13:16:00,34.0,5.0,31.74,North,0,7.0,14.0,29,0.00,,,0.05,meteohub,2013-10-18 19:16:00,
2013-10-18 13:21:00,33.4,5.4,31.73,NE,45,8.0,12.0,30,0.00,,,0.05,meteohub,2013-10-18 19:21:00,
2013-10-18 13:26:00,34.0,7.2,31.73,NW,315,8.0,12.0,32,0.00,,,0.05,meteohub,2013-10-18 19:26:00,
2013-10-18 13:31:00,34.0,7.9,31.73,West,270,8.0,11.0,33,0.00,,,0.05,meteohub,2013-10-18 19:31:00,
2013-10-18 13:36:00,34.0,7.2,31.73,NW,315,8.0,11.0,32,0.00,,,0.05,meteohub,2013-10-18 19:36:00,
2013-10-18 13:42:00,34.2,7.3,31.73,West,270,4.0,11.0,32,0.00,,,0.05,meteohub,2013-10-18 19:42:00,
2013-10-18 13:47:00,34.9,8.6,31.73,West,270,8.0,11.0,33,0.00,,,0.05,meteohub,2013-10-18 19:47:00,
2013-10-18 13:52:00,34.5,7.7,31.73,NW,315,4.0,10.0,32,0.00,,,0.05,meteohub,2013-10-18 19:52:00,
2013-10-18 13:57:00,35.1,8.8,31.73,South,180,10.0,10.0,33,0.00,,,0.05,meteohub,2013-10-18 19:57:00,
2013-10-18 14:02:00,35.4,9.1,31.73,West,270,5.0,10.0,33,0.00,,,0.05,meteohub,2013-10-18 20:02:00,
2013-10-18 14:07:00,35.4,9.1,31.73,West,270,5.0,10.0,33,0.00,,,0.05,meteohub,2013-10-18 20:07:00,
2013-10-18 14:12:00,36.5,9.5,31.73,NNW,338,10.0,10.0,32,0.00,,,0.05,meteohub,2013-10-18 20:12:00,
2013-10-18 14:17:00,36.1,8.4,31.73,NW,315,9.0,10.0,31,0.00,,,0.05,meteohub,2013-10-18 20:17:00,
2013-10-18 14:22:00,35.4,8.4,31.73,North,0,7.0,10.0,32,0.00,,,0.05,meteohub,2013-10-18 20:22:00,
2013-10-18 14:27:00,35.4,9.1,31.73,SE,135,6.0,10.0,33,0.00,,,0.05,meteohub,2013-10-18 20:27:00,
2013-10-18 14:32:00,35.2,9.7,31.73,West,270,9.0,9.0,34,0.00,,,0.05,meteohub,2013-10-18 20:32:00,
2013-10-18 14:37:00,35.2,9.7,31.73,North,0,6.0,11.0,34,0.00,,,0.05,meteohub,2013-10-18 20:37:00,
2013-10-18 14:42:00,35.4,9.9,31.73,NW,315,8.0,11.0,34,0.00,,,0.05,meteohub,2013-10-18 20:42:00,
2013-10-18 14:47:00,35.4,9.9,31.73,North,0,6.0,12.0,34,0.00,,,0.05,meteohub,2013-10-18 20:47:00,
2013-10-18 14:52:00,35.2,8.2,31.73,West,270,8.0,13.0,32,0.00,,,0.05,meteohub,2013-10-18 20:52:00,
2013-10-18 14:57:00,35.2,9.0,31.73,WNW,293,6.0,14.0,33,0.00,,,0.05,meteohub,2013-10-18 20:57:00,
2013-10-18 15:02:00,35.6,7.9,31.73,NW,315,8.0,14.0,31,0.00,,,0.05,meteohub,2013-10-18 21:02:00,
2013-10-18 15:07:00,36.0,9.0,31.73,NW,315,4.0,12.0,32,0.00,,,0.05,meteohub,2013-10-18 21:07:00,
2013-10-18 15:12:00,36.7,10.2,31.73,WNW,293,9.0,12.0,33,0.00,,,0.05,meteohub,2013-10-18 21:12:00,
2013-10-18 15:17:00,36.5,8.8,31.73,North,0,13.0,13.0,31,0.00,,,0.05,meteohub,2013-10-18 21:17:00,
2013-10-18 15:22:00,36.3,7.2,31.73,West,270,6.0,13.0,29,0.00,,,0.05,meteohub,2013-10-18 21:22:00,
2013-10-18 15:27:00,36.1,7.0,31.73,West,270,4.0,13.0,29,0.00,,,0.05,meteohub,2013-10-18 21:27:00,
2013-10-18 15:32:00,36.0,6.8,31.73,NW,315,8.0,13.0,29,0.00,,,0.05,meteohub,2013-10-18 21:32:00,
2013-10-18 15:37:00,36.1,7.7,31.73,NW,315,5.0,11.0,30,0.00,,,0.05,meteohub,2013-10-18 21:37:00,
2013-10-18 15:42:00,36.1,7.0,31.73,West,270,11.0,11.0,29,0.00,,,0.05,meteohub,2013-10-18 21:42:00,
2013-10-18 15:47:00,36.1,7.0,31.73,WNW,293,8.0,11.0,29,0.00,,,0.05,meteohub,2013-10-18 21:47:00,
2013-10-18 15:52:00,36.1,6.1,31.74,NW,315,7.0,11.0,28,0.00,,,0.05,meteohub,2013-10-18 21:52:00,
2013-10-18 15:57:00,35.8,6.6,31.73,WNW,293,4.0,11.0,29,0.00,,,0.05,meteohub,2013-10-18 21:57:00,
2013-10-18 16:02:00,35.8,7.3,31.73,West,270,9.0,11.0,30,0.00,,,0.05,meteohub,2013-10-18 22:02:00,
2013-10-18 16:07:00,35.8,7.3,31.73,West,270,9.0,11.0,30,0.00,,,0.05,meteohub,2013-10-18 22:07:00,
2013-10-18 16:12:00,35.8,6.6,31.74,West,270,11.0,11.0,29,0.00,,,0.05,meteohub,2013-10-18 22:12:00,
2013-10-18 16:17:00,35.2,5.4,31.74,SW,225,4.0,12.0,28,0.00,,,0.05,meteohub,2013-10-18 22:17:00,
2013-10-18 16:22:00,34.9,5.0,31.74,NW,315,4.0,12.0,28,0.00,,,0.05,meteohub,2013-10-18 22:22:00,
2013-10-18 16:27:00,34.3,6.1,31.74,NW,315,3.0,12.0,30,0.00,,,0.05,meteohub,2013-10-18 22:27:00,
2013-10-18 16:32:00,34.0,7.2,31.73,North,0,5.0,12.0,32,0.00,,,0.05,meteohub,2013-10-18 22:32:00,
2013-10-18 16:37:00,33.6,7.5,31.74,NW,315,6.0,9.0,33,0.00,,,0.05,meteohub,2013-10-18 22:37:00,
2013-10-18 16:42:00,33.1,7.2,31.74,West,270,6.0,8.0,33,0.00,,,0.05,meteohub,2013-10-18 22:42:00,
2013-10-18 16:47:00,32.7,6.8,31.74,SW,225,8.0,8.0,33,0.00,,,0.05,meteohub,2013-10-18 22:47:00,
2013-10-18 16:52:00,32.5,7.3,31.74,NW,315,4.0,10.0,34,0.00,,,0.05,meteohub,2013-10-18 22:52:00,
2013-10-18 16:57:00,32.4,7.2,31.74,NW,315,2.0,10.0,34,0.00,,,0.05,meteohub,2013-10-18 22:57:00,
2013-10-18 17:02:00,32.4,7.2,31.74,SW,225,3.0,10.0,34,0.00,,,0.05,meteohub,2013-10-18 23:02:00,
2013-10-18 17:07:00,32.4,7.2,31.74,NW,315,3.0,8.0,34,0.00,,,0.05,meteohub,2013-10-18 23:07:00,
2013-10-18 17:12:00,32.0,6.1,31.74,West,270,2.0,8.0,33,0.00,,,0.05,meteohub,2013-10-18 23:12:00,
2013-10-18 17:17:00,31.8,7.3,31.74,NW,315,2.0,8.0,35,0.00,,,0.05,meteohub,2013-10-18 23:17:00,
2013-10-18 17:22:00,31.6,7.7,31.74,NW,315,2.0,7.0,36,0.00,,,0.05,meteohub,2013-10-18 23:22:00,
2013-10-18 17:27:00,31.3,7.3,31.74,West,270,2.0,4.0,36,0.00,,,0.05,meteohub,2013-10-18 23:27:00,
2013-10-18 17:32:00,31.1,6.1,31.74,NW,315,5.0,7.0,34,0.00,,,0.05,meteohub,2013-10-18 23:32:00,
2013-10-18 17:37:00,30.7,5.7,31.74,North,0,2.0,7.0,34,0.00,,,0.05,meteohub,2013-10-18 23:37:00,
2013-10-18 17:42:00,30.4,5.4,31.74,North,0,2.0,7.0,34,0.00,,,0.05,meteohub,2013-10-18 23:42:00,
2013-10-18 17:47:00,29.8,5.5,31.74,NW,315,3.0,7.0,35,0.00,,,0.05,meteohub,2013-10-18 23:47:00,
2013-10-18 17:52:00,29.3,5.0,31.74,NW,315,4.0,4.0,35,0.00,,,0.05,meteohub,2013-10-18 23:52:00,
2013-10-18 17:57:00,28.9,4.6,31.74,NW,315,3.0,6.0,35,0.00,,,0.05,meteohub,2013-10-18 23:57:00,
2013-10-18 18:02:00,28.8,3.9,31.75,NW,315,2.0,6.0,34,0.00,,,0.05,meteohub,2013-10-19 00:02:00,
2013-10-18 18:07:00,28.8,3.9,31.75,NW,315,2.0,6.0,34,0.00,,,0.00,meteohub,2013-10-19 00:07:00,
2013-10-18 18:12:00,28.0,4.5,31.75,WSW,248,2.0,6.0,36,0.00,,,0.00,meteohub,2013-10-19 00:12:00,
2013-10-18 18:17:00,27.9,5.0,31.75,ENE,68,4.0,6.0,37,0.00,,,0.00,meteohub,2013-10-19 00:17:00,
2013-10-18 18:22:00,27.7,5.9,31.75,NE,45,4.0,6.0,39,0.00,,,0.00,meteohub,2013-10-19 00:22:00,
2013-10-18 18:27:00,27.3,6.8,31.75,NW,315,3.0,7.0,41,0.00,,,0.00,meteohub,2013-10-19 00:27:00,
2013-10-18 18:32:00,27.1,6.6,31.75,NW,315,3.0,7.0,41,0.00,,,0.00,meteohub,2013-10-19 00:32:00,
2013-10-18 18:37:00,27.0,5.9,31.75,West,270,2.0,5.0,40,0.00,,,0.00,meteohub,2013-10-19 00:37:00,
2013-10-18 18:42:00,27.0,5.4,31.75,North,0,2.0,7.0,39,0.00,,,0.00,meteohub,2013-10-19 00:42:00,
2013-10-18 18:47:00,26.8,5.7,31.75,SW,225,2.0,7.0,40,0.00,,,0.00,meteohub,2013-10-19 00:47:00,
2013-10-18 18:52:00,26.6,5.5,31.75,NW,315,3.0,7.0,40,0.00,,,0.00,meteohub,2013-10-19 00:52:00,
2013-10-18 18:57:00,26.4,6.4,31.76,North,0,4.0,8.0,42,0.00,,,0.00,meteohub,2013-10-19 00:57:00,
2013-10-18 19:02:00,26.4,6.4,31.76,East,90,4.0,8.0,42,0.00,,,0.00,meteohub,2013-10-19 01:02:00,
2013-10-18 19:07:00,26.2,6.3,31.76,NW,315,3.0,5.0,42,0.00,,,0.00,meteohub,2013-10-19 01:07:00,
2013-10-18 19:12:00,26.2,6.3,31.76,North,0,4.0,5.0,42,0.00,,,0.00,meteohub,2013-10-19 01:12:00,
2013-10-18 19:17:00,26.1,6.6,31.77,West,270,2.0,5.0,43,0.00,,,0.00,meteohub,2013-10-19 01:17:00,
2013-10-18 19:22:00,26.1,6.6,31.76,SE,135,2.0,10.0,43,0.00,,,0.00,meteohub,2013-10-19 01:22:00,
2013-10-18 19:27:00,25.9,6.4,31.77,North,0,4.0,10.0,43,0.00,,,0.00,meteohub,2013-10-19 01:27:00,
2013-10-18 19:32:00,25.7,6.3,31.77,NW,315,2.0,7.0,43,0.00,,,0.00,meteohub,2013-10-19 01:32:00,
2013-10-18 19:37:00,25.7,6.3,31.77,South,180,2.0,6.0,43,0.00,,,0.00,meteohub,2013-10-19 01:37:00,
2013-10-18 19:42:00,25.7,6.3,31.77,SE,135,3.0,6.0,43,0.00,,,0.00,meteohub,2013-10-19 01:42:00,
2013-10-18 19:47:00,25.3,6.4,31.78,WNW,293,4.0,6.0,44,0.00,,,0.00,meteohub,2013-10-19 01:47:00,
2013-10-18 19:52:00,25.5,6.6,31.78,South,180,2.0,5.0,44,0.00,,,0.00,meteohub,2013-10-19 01:52:00,
2013-10-18 19:57:00,25.3,6.4,31.78,South,180,4.0,5.0,44,0.00,,,0.00,meteohub,2013-10-19 01:57:00,
2013-10-18 20:02:00,25.2,6.3,31.78,South,180,1.0,5.0,44,0.00,,,0.00,meteohub,2013-10-19 02:02:00,
2013-10-18 20:07:00,25.2,6.3,31.78,South,180,1.0,4.0,44,0.00,,,0.00,meteohub,2013-10-19 02:07:00,
2013-10-18 20:12:00,24.6,6.8,31.78,NE,45,0.0,4.0,46,0.00,,,0.00,meteohub,2013-10-19 02:12:00,
2013-10-18 20:17:00,24.3,6.4,31.78,East,90,1.0,2.0,46,0.00,,,0.00,meteohub,2013-10-19 02:17:00,
2013-10-18 20:22:00,24.1,6.3,31.78,East,90,3.0,4.0,46,0.00,,,0.00,meteohub,2013-10-19 02:22:00,
2013-10-18 20:27:00,24.3,6.4,31.79,SE,135,4.0,4.0,46,0.00,,,0.00,meteohub,2013-10-19 02:27:00,
2013-10-18 20:32:00,24.4,6.1,31.79,East,90,3.0,4.0,45,0.00,,,0.00,meteohub,2013-10-19 02:32:00,
2013-10-18 20:37:00,24.3,6.4,31.79,North,0,10.0,10.0,46,0.00,,,0.00,meteohub,2013-10-19 02:37:00,
2013-10-18 20:42:00,24.4,6.1,31.79,SE,135,3.0,10.0,45,0.00,,,0.00,meteohub,2013-10-19 02:42:00,
2013-10-18 20:47:00,24.3,5.9,31.79,SE,135,1.0,10.0,45,0.00,,,0.00,meteohub,2013-10-19 02:47:00,
2013-10-18 20:52:00,24.3,5.9,31.79,SW,225,3.0,10.0,45,0.00,,,0.00,meteohub,2013-10-19 02:52:00,
2013-10-18 20:57:00,24.1,5.7,31.79,West,270,0.0,3.0,45,0.00,,,0.00,meteohub,2013-10-19 02:57:00,
2013-10-18 21:02:00,23.9,6.1,31.80,SW,225,2.0,3.0,46,0.00,,,0.00,meteohub,2013-10-19 03:02:00,
2013-10-18 21:07:00,23.7,5.9,31.80,SW,225,2.0,3.0,46,0.00,,,0.00,meteohub,2013-10-19 03:07:00,
2013-10-18 21:12:00,23.5,6.3,31.80,South,180,0.0,3.0,47,0.00,,,0.00,meteohub,2013-10-19 03:12:00,
2013-10-18 21:17:00,23.2,5.9,31.80,NW,315,2.0,3.0,47,0.00,,,0.00,meteohub,2013-10-19 03:17:00,
2013-10-18 21:22:00,22.8,6.4,31.80,South,180,4.0,4.0,49,0.00,,,0.00,meteohub,2013-10-19 03:22:00,
2013-10-18 21:27:00,22.8,7.0,31.80,West,270,0.0,4.0,50,0.00,,,0.00,meteohub,2013-10-19 03:27:00,
2013-10-18 21:32:00,22.8,7.0,31.80,SW,225,3.0,4.0,50,0.00,,,0.00,meteohub,2013-10-19 03:32:00,
2013-10-18 21:37:00,22.8,6.4,31.80,North,0,2.0,4.0,49,0.00,,,0.00,meteohub,2013-10-19 03:37:00,
2013-10-18 21:42:00,22.8,6.4,31.80,SW,225,2.0,3.0,49,0.00,,,0.00,meteohub,2013-10-19 03:42:00,
2013-10-18 21:47:00,22.8,6.4,31.80,NW,315,0.0,3.0,49,0.00,,,0.00,meteohub,2013-10-19 03:47:00,
2013-10-18 21:52:00,22.8,6.4,31.80,North,0,0.0,2.0,49,0.00,,,0.00,meteohub,2013-10-19 03:52:00,
2013-10-18 21:57:00,22.6,6.4,31.81,NW,315,0.0,4.0,49,0.00,,,0.00,meteohub,2013-10-19 03:57:00,
2013-10-18 22:01:00,22.8,6.1,31.81,NW,315,1.0,4.0,48,0.00,,,0.00,meteohub,2013-10-19 04:01:00,
2013-10-18 22:02:00,22.8,6.1,31.81,NW,315,1.0,4.0,48,0.00,,,0.00,meteohub,2013-10-19 04:02:00,
2013-10-18 22:04:00,22.8,6.1,31.81,NW,315,1.0,4.0,48,0.00,,,0.00,meteohub,2013-10-19 04:04:00,
2013-10-18 22:08:00,22.8,6.1,31.81,SE,135,0.0,4.0,48,0.00,,,0.00,meteohub,2013-10-19 04:08:00,
2013-10-18 22:13:00,22.6,5.9,31.81,South,180,3.0,3.0,48,0.00,,,0.00,meteohub,2013-10-19 04:13:00,
2013-10-18 22:18:00,22.5,6.3,31.81,SW,225,2.0,2.0,49,0.00,,,0.00,meteohub,2013-10-19 04:18:00,
2013-10-18 22:23:00,22.5,6.3,31.81,SW,225,2.0,3.0,49,0.00,,,0.00,meteohub,2013-10-19 04:23:00,
2013-10-18 22:28:00,22.3,6.1,31.81,SW,225,0.0,3.0,49,0.00,,,0.00,meteohub,2013-10-19 04:28:00,
2013-10-18 22:33:00,22.1,5.9,31.81,SW,225,2.0,2.0,49,0.00,,,0.00,meteohub,2013-10-19 04:33:00,
2013-10-18 22:39:00,21.9,6.1,31.81,NW,315,0.0,3.0,50,0.00,,,0.00,meteohub,2013-10-19 04:39:00,
2013-10-18 22:44:00,21.7,5.9,31.81,West,270,2.0,3.0,50,0.00,,,0.00,meteohub,2013-10-19 04:44:00,
2013-10-18 22:49:00,21.9,6.1,31.81,NNW,338,2.0,3.0,50,0.00,,,0.00,meteohub,2013-10-19 04:49:00,
2013-10-18 22:54:00,22.1,6.3,31.81,West,270,0.0,3.0,50,0.00,,,0.00,meteohub,2013-10-19 04:54:00,
2013-10-18 22:59:00,21.9,6.1,31.81,WSW,248,2.0,3.0,50,0.00,,,0.00,meteohub,2013-10-19 04:59:00,
2013-10-18 23:04:00,21.9,6.1,31.81,West,270,4.0,4.0,50,0.00,,,0.00,meteohub,2013-10-19 05:04:00,
2013-10-18 23:10:00,22.1,6.8,31.80,SW,225,2.0,4.0,51,0.00,,,0.00,meteohub,2013-10-19 05:10:00,
2013-10-18 23:15:00,22.1,6.8,31.80,NW,315,2.0,4.0,51,0.00,,,0.00,meteohub,2013-10-19 05:15:00,
2013-10-18 23:20:00,22.1,7.2,31.80,NW,315,2.0,3.0,52,0.00,,,0.00,meteohub,2013-10-19 05:20:00,
2013-10-18 23:25:00,21.9,7.0,31.80,NW,315,4.0,4.0,52,0.00,,,0.00,meteohub,2013-10-19 05:25:00,
2013-10-18 23:30:00,21.9,7.0,31.80,West,270,2.0,4.0,52,0.00,,,0.00,meteohub,2013-10-19 05:30:00,
2013-10-18 23:36:00,21.7,6.4,31.80,North,0,2.0,4.0,51,0.00,,,0.00,meteohub,2013-10-19 05:36:00,
2013-10-18 23:41:00,21.6,6.6,31.80,NW,315,3.0,4.0,52,0.00,,,0.00,meteohub,2013-10-19 05:41:00,
2013-10-18 23:46:00,21.6,6.6,31.80,WSW,248,2.0,3.0,52,0.00,,,0.00,meteohub,2013-10-19 05:46:00,
2013-10-18 23:51:00,21.7,6.8,31.80,West,270,3.0,3.0,52,0.00,,,0.00,meteohub,2013-10-19 05:51:00,
2013-10-18 23:56:00,21.6,7.2,31.80,SW,225,1.0,3.0,53,0.00,,,0.00,meteohub,2013-10-19 05:56:00,